Time;durP1;ratioP1;P1;durP2;ratioP2;P2;SDS_P1;SDS_P2;PMS_P1;PMS_P2;Temp;Humidity;BMP_temperature;BMP_pressure;BME280_temperature;BME280_humidity;BME280_pressure;Samples;Min_cycle;Max_cycle;Signal;HPM_P1;HPM_P2
2023/12/08 00:01:30;;;;;;;16.38;11.77;;;15.70;68.90;;;;;;4183199;28;20205;-50
2023/12/08 00:04:12;;;;;;;14.55;11.38;;;15.70;68.80;;;;;;4164335;28;20097;-51
2023/12/08 00:06:53;;;;;;;16.30;11.23;;;15.70;68.70;;;;;;4185493;28;20826;-50
2023/12/08 00:09:34;;;;;;;16.40;11.80;;;15.60;68.70;;;;;;4183099;28;20579;-51
2023/12/08 00:12:15;;;;;;;18.02;11.85;;;15.60;68.60;;;;;;4185865;28;20111;-50
2023/12/08 00:14:56;;;;;;;14.88;11.02;;;15.60;68.40;;;;;;4186861;28;20055;-50
2023/12/08 00:17:40;;;;;;;14.82;10.70;;;15.60;68.80;;;;;;4186823;28;20063;-49
2023/12/08 00:20:22;;;;;;;15.32;11.38;;;15.60;68.80;;;;;;4163462;28;20048;-50
2023/12/08 00:23:03;;;;;;;13.50;11.13;;;15.70;68.50;;;;;;4184535;28;20078;-50
2023/12/08 00:25:44;;;;;;;13.73;11.10;;;15.70;68.20;;;;;;4187100;28;20611;-50
2023/12/08 00:28:25;;;;;;;16.48;11.95;;;15.80;68.20;;;;;;4187508;28;20182;-50
2023/12/08 00:31:06;;;;;;;14.30;10.82;;;15.80;68.10;;;;;;4187013;28;20040;-50
2023/12/08 00:33:47;;;;;;;13.90;10.43;;;15.90;67.80;;;;;;4186222;28;20056;-49
2023/12/08 00:36:29;;;;;;;13.90;10.82;;;15.90;67.70;;;;;;4171545;28;20056;-54
2023/12/08 00:39:11;;;;;;;15.52;11.63;;;16.00;68.60;;;;;;4187133;28;20055;-50
2023/12/08 00:41:52;;;;;;;14.40;11.45;;;16.00;67.30;;;;;;4169505;28;20060;-51
2023/12/08 00:44:33;;;;;;;15.13;11.02;;;16.00;67.00;;;;;;4181109;28;20072;-53
2023/12/08 00:47:14;;;;;;;13.55;11.32;;;16.10;67.10;;;;;;4186721;28;20395;-50
2023/12/08 00:49:55;;;;;;;12.82;11.25;;;16.10;67.10;;;;;;4186357;28;20112;-51
2023/12/08 00:52:37;;;;;;;14.20;11.05;;;16.10;67.10;;;;;;4186231;28;20125;-53
2023/12/08 00:55:18;;;;;;;12.57;10.02;;;16.00;67.00;;;;;;4170689;28;20052;-53
2023/12/08 00:57:59;;;;;;;20.05;11.57;;;16.00;66.90;;;;;;4184525;28;20051;-52
2023/12/08 01:00:40;;;;;;;;;;;15.90;67.10;;;;;;4187516;28;20055;-54
2023/12/08 01:03:22;;;;;;;15.45;10.60;;;15.90;67.50;;;;;;4186795;28;19973;-52
2023/12/08 01:06:03;;;;;;;12.10;10.00;;;15.80;67.40;;;;;;4206238;28;20055;-51
2023/12/08 01:08:46;;;;;;;13.35;11.07;;;15.80;67.70;;;;;;4179888;28;20143;-53
2023/12/08 01:11:26;;;;;;;14.00;11.63;;;15.70;67.80;;;;;;4189582;28;20051;-53
2023/12/08 01:14:08;;;;;;;16.17;11.35;;;15.70;68.10;;;;;;4187031;28;20060;-50
2023/12/08 01:16:49;;;;;;;13.55;11.02;;;15.70;68.30;;;;;;4190182;28;20051;-52
2023/12/08 01:19:30;;;;;;;14.02;10.93;;;15.80;68.30;;;;;;4178823;28;20067;-53
2023/12/08 01:22:11;;;;;;;13.80;10.88;;;15.80;68.20;;;;;;4189057;28;20121;-52
2023/12/08 01:24:53;;;;;;;14.82;11.73;;;15.80;68.10;;;;;;4168682;28;20452;-51
2023/12/08 01:27:34;;;;;;;13.75;11.13;;;15.90;68.00;;;;;;4155478;28;20052;-50
2023/12/08 01:30:15;;;;;;;14.60;11.68;;;15.90;67.70;;;;;;4170470;28;20060;-51
2023/12/08 01:32:56;;;;;;;14.07;11.23;;;15.90;67.60;;;;;;4172960;28;20139;-49
2023/12/08 01:35:37;;;;;;;18.33;11.95;;;15.90;68.30;;;;;;4187934;28;20058;-49
2023/12/08 01:38:19;;;;;;;16.38;10.98;;;16.00;67.30;;;;;;4187610;28;20506;-51
2023/12/08 01:41:01;;;;;;;15.52;11.15;;;16.00;67.00;;;;;;4179183;28;20056;-53
2023/12/08 01:43:43;;;;;;;13.60;10.93;;;16.00;66.80;;;;;;4175256;28;20110;-51
2023/12/08 01:46:26;;;;;;;13.77;11.23;;;16.10;66.90;;;;;;4189417;28;20047;-54
2023/12/08 01:49:07;;;;;;;15.25;11.85;;;16.10;66.60;;;;;;4179137;28;20048;-53
2023/12/08 01:51:48;;;;;;;17.30;12.20;;;16.20;66.20;;;;;;4189383;28;20498;-50
2023/12/08 01:54:30;;;;;;;14.38;12.02;;;16.20;66.00;;;;;;4188995;28;20437;-52
2023/12/08 01:57:13;;;;;;;15.82;11.68;;;16.10;65.90;;;;;;4175424;28;20074;-53
2023/12/08 01:59:54;;;;;;;16.00;12.10;;;16.10;66.10;;;;;;4172309;28;20060;-51
2023/12/08 02:02:37;;;;;;;14.80;12.20;;;16.10;66.30;;;;;;4172078;28;20502;-50
2023/12/08 02:05:19;;;;;;;13.02;11.10;;;16.20;66.20;;;;;;4186236;28;20056;-51
2023/12/08 02:08:01;;;;;;;17.27;12.25;;;16.20;66.00;;;;;;4173934;28;20064;-50
2023/12/08 02:10:42;;;;;;;16.63;12.35;;;16.30;65.90;;;;;;4189115;28;20169;-50
2023/12/08 02:13:25;;;;;;;14.73;11.15;;;16.30;66.20;;;;;;4185798;28;20064;-50
2023/12/08 02:16:11;;;;;;;15.48;11.73;;;16.30;66.00;;;;;;4156493;28;20076;-49
2023/12/08 02:18:52;;;;;;;13.27;11.27;;;16.20;65.70;;;;;;4172472;28;20051;-52
2023/12/08 02:21:35;;;;;;;15.20;11.77;;;16.20;65.80;;;;;;4172289;28;20508;-51
2023/12/08 02:24:19;;;;;;;15.30;11.35;;;16.30;66.10;;;;;;4176556;28;20055;-49
2023/12/08 02:27:00;;;;;;;15.70;11.32;;;16.30;66.10;;;;;;4188699;28;20105;-50
2023/12/08 02:29:41;;;;;;;13.70;11.13;;;16.20;66.00;;;;;;4184466;28;20605;-50
2023/12/08 02:32:26;;;;;;;12.85;11.18;;;16.30;65.90;;;;;;4173338;28;20055;-50
2023/12/08 02:35:09;;;;;;;12.57;10.52;;;16.30;65.80;;;;;;4188946;28;20530;-51
2023/12/08 02:37:53;;;;;;;14.77;11.43;;;16.20;65.90;;;;;;4188067;28;20051;-49
2023/12/08 02:40:35;;;;;;;14.85;11.13;;;16.20;65.90;;;;;;4187765;28;20060;-51
2023/12/08 02:43:16;;;;;;;12.63;10.38;;;16.20;65.70;;;;;;4187065;28;20061;-50
2023/12/08 02:45:57;;;;;;;13.55;11.23;;;16.20;65.80;;;;;;4171595;28;20052;-53
2023/12/08 02:48:38;;;;;;;11.73;10.38;;;16.30;65.80;;;;;;4171186;28;20517;-52
2023/12/08 02:51:19;;;;;;;14.13;11.05;;;16.20;65.80;;;;;;4156016;28;20068;-49
2023/12/08 02:54:00;;;;;;;12.80;10.30;;;16.30;65.80;;;;;;4165652;28;20565;-50
2023/12/08 02:56:42;;;;;;;12.85;10.80;;;16.30;65.70;;;;;;4186531;28;20298;-49
2023/12/08 02:59:23;;;;;;;14.80;11.38;;;16.30;65.80;;;;;;4188098;28;20509;-50
2023/12/08 03:02:04;;;;;;;13.15;10.73;;;16.30;65.90;;;;;;4169193;28;20098;-50
2023/12/08 03:04:45;;;;;;;11.68;10.07;;;16.30;65.80;;;;;;4186594;28;20396;-50
2023/12/08 03:07:26;;;;;;;10.98;9.48;;;16.30;65.60;;;;;;4187897;28;20502;-49
2023/12/08 03:10:08;;;;;;;12.23;9.77;;;16.30;65.50;;;;;;4188056;28;20051;-51
2023/12/08 03:12:51;;;;;;;12.30;10.15;;;16.40;65.60;;;;;;4183790;28;20562;-53
2023/12/08 03:15:31;;;;;;;10.18;9.15;;;16.40;65.10;;;;;;4188120;28;20055;-50
2023/12/08 03:18:12;;;;;;;13.20;9.40;;;16.30;65.00;;;;;;4182824;28;20519;-51
2023/12/08 03:20:54;;;;;;;12.32;10.40;;;16.30;65.30;;;;;;4187853;28;20105;-52
2023/12/08 03:23:35;;;;;;;10.30;9.18;;;16.20;65.40;;;;;;4179141;28;20047;-49
2023/12/08 03:26:16;;;;;;;10.90;9.05;;;16.20;65.30;;;;;;4173228;28;20468;-48
2023/12/08 03:28:59;;;;;;;12.80;9.52;;;16.20;65.50;;;;;;4187790;28;20039;-49
2023/12/08 03:31:39;;;;;;;11.48;9.60;;;16.10;65.80;;;;;;4188464;28;20063;-45
2023/12/08 03:34:20;;;;;;;10.77;9.13;;;16.00;65.90;;;;;;4188670;28;20059;-46
2023/12/08 03:37:02;;;;;;;10.90;9.80;;;15.90;66.40;;;;;;4187468;28;20394;-46
2023/12/08 03:39:44;;;;;;;9.85;8.73;;;15.80;66.60;;;;;;4170961;28;20174;-46
2023/12/08 03:42:31;;;;;;;11.00;8.35;;;15.90;66.70;;;;;;4184902;28;20415;-46
2023/12/08 03:45:13;;;;;;;10.25;8.95;;;15.90;66.20;;;;;;4187025;28;20105;-50
2023/12/08 03:47:54;;;;;;;12.02;8.82;;;16.00;65.70;;;;;;4187625;28;20130;-51
2023/12/08 03:50:35;;;;;;;11.88;9.63;;;16.00;65.60;;;;;;4180400;28;20055;-51
2023/12/08 03:53:16;;;;;;;11.57;9.20;;;16.10;65.00;;;;;;4171149;28;20411;-52
2023/12/08 03:55:57;;;;;;;13.85;9.38;;;16.10;64.90;;;;;;4185762;28;20047;-51
2023/12/08 03:58:38;;;;;;;11.85;9.80;;;16.20;64.70;;;;;;4204107;28;20120;-52
2023/12/08 04:01:21;;;;;;;10.40;9.30;;;16.20;64.20;;;;;;4202963;28;20626;-50
2023/12/08 04:04:02;;;;;;;11.15;9.43;;;16.20;64.50;;;;;;4200742;28;20067;-53
2023/12/08 04:06:43;;;;;;;13.05;9.85;;;16.20;64.70;;;;;;4172072;28;20051;-49
2023/12/08 04:09:24;;;;;;;12.23;8.95;;;16.20;64.70;;;;;;4187345;28;20048;-53
2023/12/08 04:12:07;;;;;;;10.48;9.00;;;16.10;64.40;;;;;;4174122;28;20183;-52
2023/12/08 04:14:48;;;;;;;13.85;10.13;;;16.10;64.00;;;;;;4178970;28;20039;-53
2023/12/08 04:17:31;;;;;;;12.45;9.05;;;16.10;64.70;;;;;;4171734;28;20060;-53
2023/12/08 04:20:11;;;;;;;13.63;8.95;;;16.00;65.00;;;;;;4182940;28;20505;-51
2023/12/08 04:22:53;;;;;;;;;;;15.90;64.70;;;;;;4177354;28;20171;-52
2023/12/08 04:25:34;;;;;;;;;;;15.80;64.80;;;;;;4199539;28;19931;-52
2023/12/08 04:28:14;;;;;;;;;;;15.70;65.60;;;;;;4202774;28;20523;-52
2023/12/08 04:30:55;;;;;;;;;;;15.60;66.80;;;;;;4203552;28;20034;-51
2023/12/08 04:33:37;;;;;;;;;;;15.60;65.90;;;;;;4203930;28;19930;-56
2023/12/08 04:36:19;;;;;;;;;;;15.70;65.80;;;;;;4176812;28;19927;-55
2023/12/08 04:38:59;;;;;;;;;;;15.70;65.80;;;;;;4181324;28;19932;-54
2023/12/08 04:41:40;;;;;;;;;;;15.90;65.60;;;;;;4203852;28;19927;-54
2023/12/08 04:44:20;;;;;;;;;;;16.00;65.00;;;;;;4200582;28;20379;-52
2023/12/08 04:47:01;;;;;;;;;;;16.10;64.60;;;;;;4190136;28;20017;-53
2023/12/08 04:49:43;;;;;;;;;;;16.10;65.10;;;;;;4189683;28;20383;-54
2023/12/08 04:52:24;;;;;;;;;;;16.20;64.50;;;;;;4190517;28;20413;-54
2023/12/08 04:55:05;;;;;;;;;;;16.20;64.20;;;;;;4199957;28;19976;-53
2023/12/08 04:57:46;;;;;;;;;;;16.20;64.10;;;;;;4158301;28;20684;-53
2023/12/08 05:00:27;;;;;;;;;;;16.10;64.10;;;;;;4173992;28;20097;-53
2023/12/08 05:03:07;;;;;;;;;;;16.10;64.50;;;;;;4163242;28;19932;-53
2023/12/08 05:05:52;;;;;;;;;;;16.10;64.80;;;;;;4179879;28;20595;-52
2023/12/08 05:08:33;;;;;;;;;;;16.10;65.10;;;;;;4190848;28;20058;-52
2023/12/08 05:11:13;;;;;;;;;;;16.20;64.90;;;;;;4191407;28;19927;-52
2023/12/08 05:13:54;;;;;;;;;;;16.20;64.80;;;;;;4181841;28;20378;-52
2023/12/08 05:16:35;;;;;;;;;;;16.30;64.90;;;;;;4190427;28;19963;-47
2023/12/08 05:19:16;;;;;;;;;;;16.30;64.40;;;;;;4189682;28;19943;-47
2023/12/08 05:21:59;;;;;;;;;;;16.40;64.10;;;;;;4175671;28;19927;-47
2023/12/08 05:24:40;;;;;;;;;;;16.40;64.00;;;;;;4200098;28;19931;-47
2023/12/08 05:27:20;;;;;;;;;;;16.40;64.30;;;;;;4207873;28;20378;-47
2023/12/08 05:30:01;;;;;;;;;;;16.40;64.60;;;;;;4207316;28;19935;-46
2023/12/08 05:32:43;;;;;;;;;;;16.40;64.60;;;;;;4184109;28;19927;-46
2023/12/08 05:35:25;;;;;;;;;;;16.40;64.70;;;;;;4174130;28;19932;-47
2023/12/08 05:38:07;;;;;;;;;;;16.30;64.90;;;;;;4184365;28;19932;-47
2023/12/08 05:40:48;;;;;;;;;;;16.20;65.10;;;;;;4171707;28;19927;-46
2023/12/08 05:43:29;;;;;;;;;;;16.20;65.10;;;;;;4183648;28;19931;-47
2023/12/08 05:46:10;;;;;;;;;;;16.20;65.40;;;;;;4193893;28;20369;-48
2023/12/08 05:48:50;;;;;;;;;;;16.20;65.80;;;;;;4189311;28;20386;-54
2023/12/08 05:51:31;;;;;;;;;;;16.10;65.90;;;;;;4188570;28;19932;-54
2023/12/08 05:54:13;;;;;;;;;;;16.10;66.00;;;;;;4200078;28;19927;-55
2023/12/08 05:56:54;;;;;;;;;;;16.00;66.20;;;;;;4205627;28;19927;-57
2023/12/08 05:59:35;;;;;;;;;;;16.00;66.50;;;;;;4204020;28;19975;-56
2023/12/08 06:02:16;;;;;;;;;;;16.00;66.50;;;;;;4198579;28;19932;-57
2023/12/08 06:04:57;;;;;;;;;;;16.00;66.40;;;;;;4170723;28;19927;-54
2023/12/08 06:07:38;;;;;;;;;;;16.10;66.20;;;;;;4159645;28;20276;-54
2023/12/08 06:10:22;;;;;;;;;;;16.10;66.40;;;;;;4172073;28;19931;-53
2023/12/08 06:13:03;;;;;;;;;;;16.00;67.20;;;;;;4195026;28;19927;-54
2023/12/08 06:15:44;;;;;;;;;;;16.00;66.30;;;;;;4160306;28;19932;-54
2023/12/08 06:18:25;;;;;;;;;;;15.90;66.50;;;;;;4169661;28;19928;-53
2023/12/08 06:21:07;;;;;;;;;;;15.80;66.60;;;;;;4172204;28;19932;-53
2023/12/08 06:23:48;;;;;;;;;;;15.80;67.00;;;;;;4185487;28;19934;-53
2023/12/08 06:26:29;;;;;;;;;;;15.90;66.80;;;;;;4188478;28;19931;-54
2023/12/08 06:29:10;;;;;;;;;;;15.90;67.40;;;;;;4185608;28;20371;-52
2023/12/08 06:31:51;;;;;;;;;;;15.90;66.10;;;;;;4174535;28;20091;-51
2023/12/08 06:34:31;;;;;;;;;;;16.00;66.10;;;;;;4178513;28;20284;-51
2023/12/08 06:37:12;;;;;;;;;;;16.00;66.60;;;;;;4188487;28;19927;-51
2023/12/08 06:39:52;;;;;;;;;;;16.00;65.60;;;;;;4188540;28;20034;-53
2023/12/08 06:42:28;;;;;;;;;;;16.00;65.30;;;;;;4202387;27;19917;-49
2023/12/08 06:45:09;;;;;;;;;;;16.00;65.00;;;;;;4191936;28;19939;-49
2023/12/08 06:47:49;;;;;;;;;;;16.00;64.90;;;;;;4201614;28;19935;-50
2023/12/08 06:50:30;;;;;;;;;;;16.00;65.10;;;;;;4201227;28;19936;-51
2023/12/08 06:53:11;;;;;;;;;;;16.00;65.30;;;;;;4202594;27;19932;-53
2023/12/08 06:55:52;;;;;;;;;;;16.00;65.30;;;;;;4218112;27;20065;-51
2023/12/08 06:58:34;;;;;;;;;;;16.10;65.20;;;;;;4216764;27;20709;-52
2023/12/08 07:01:15;;;;;;;;;;;16.10;65.30;;;;;;4201614;28;20489;-52
2023/12/08 07:03:56;;;;;;;;;;;16.20;65.60;;;;;;4192537;28;20062;-51
2023/12/08 07:06:36;;;;;;;;;;;16.30;65.20;;;;;;4201579;28;20033;-50
2023/12/08 07:09:18;;;;;;;;;;;16.30;64.80;;;;;;4201430;28;20357;-52
2023/12/08 07:11:58;;;;;;;;;;;16.30;64.90;;;;;;4201200;27;19939;-53
2023/12/08 07:14:40;;;;;;;;;;;16.30;64.60;;;;;;4213133;27;19980;-52
2023/12/08 07:17:21;;;;;;;;;;;16.30;64.60;;;;;;4201623;28;20370;-52
2023/12/08 07:20:02;;;;;;;;;;;16.30;64.70;;;;;;4200433;28;19957;-51
2023/12/08 07:22:43;;;;;;;;;;;16.30;64.70;;;;;;4201425;27;19931;-52
2023/12/08 07:25:24;;;;;;;;;;;16.30;64.80;;;;;;4167941;28;19944;-51
2023/12/08 07:28:05;;;;;;;;;;;16.30;64.80;;;;;;4167884;28;20071;-54
2023/12/08 07:30:47;;;;;;;;;;;16.30;65.00;;;;;;4174963;28;20094;-52
2023/12/08 07:33:28;;;;;;;;;;;16.20;64.90;;;;;;4186718;28;19936;-49
2023/12/08 07:36:10;;;;;;;;;;;16.20;63.50;;;;;;4200983;28;19931;-50
2023/12/08 07:38:50;;;;;;;;;;;16.30;63.20;;;;;;4201007;28;19931;-48
2023/12/08 07:41:32;;;;;;;;;;;16.30;62.90;;;;;;4199771;28;19958;-54
2023/12/08 07:44:13;;;;;;;;;;;16.30;62.50;;;;;;4208499;27;19934;-52
2023/12/08 07:46:55;;;;;;;;;;;16.30;62.20;;;;;;4216860;27;19935;-53
2023/12/08 07:49:37;;;;;;;;;;;16.30;62.00;;;;;;4195400;28;19960;-53
2023/12/08 07:52:18;;;;;;;;;;;16.30;62.00;;;;;;4214871;27;20066;-48
2023/12/08 07:54:58;;;;;;;;;;;16.30;61.80;;;;;;4183677;28;19997;-49
2023/12/08 07:57:39;;;;;;;;;;;16.40;61.50;;;;;;4170839;28;19939;-50
2023/12/08 08:00:21;;;;;;;;;;;16.50;61.40;;;;;;4172279;28;19952;-52
2023/12/08 08:03:04;;;;;;;;;;;16.50;61.40;;;;;;4175452;28;19935;-53
2023/12/08 08:05:44;;;;;;;;;;;16.50;62.30;;;;;;4188679;28;19935;-54
2023/12/08 08:08:26;;;;;;;;;;;16.50;61.40;;;;;;4173060;28;19932;-52
2023/12/08 08:11:06;;;;;;;;;;;16.50;61.50;;;;;;4172241;28;19935;-52
2023/12/08 08:13:47;;;;;;;;;;;16.60;61.80;;;;;;4171611;28;19940;-55
2023/12/08 08:16:28;;;;;;;;;;;16.60;61.70;;;;;;4180394;28;19947;-53
2023/12/08 08:19:10;;;;;;;;;;;16.60;61.60;;;;;;4171405;28;19985;-51
2023/12/08 08:21:50;;;;;;;;;;;16.60;61.80;;;;;;4175645;28;19935;-52
2023/12/08 08:24:51;;;;;;;;;;;16.60;61.90;;;;;;4182218;28;19971;-51
2023/12/08 08:27:33;;;;;;;;;;;16.50;62.00;;;;;;4170842;28;19935;-51
2023/12/08 08:30:14;;;;;;;;;;;16.30;62.00;;;;;;4182047;28;20291;-50
2023/12/08 08:32:55;;;;;;;;;;;16.30;62.80;;;;;;4173237;28;20375;-46
2023/12/08 08:35:38;;;;;;;;;;;16.20;62.90;;;;;;4173885;28;20326;-46
2023/12/08 08:38:19;;;;;;;;;;;16.10;64.80;;;;;;4169592;28;20495;-54
2023/12/08 08:41:00;;;;;;;;;;;16.00;64.80;;;;;;4173424;28;19940;-46
2023/12/08 08:43:40;;;;;;;;;;;16.00;65.60;;;;;;4175593;28;19939;-45
2023/12/08 08:46:21;;;;;;;;;;;15.90;66.00;;;;;;4173946;28;19981;-47
2023/12/08 08:49:02;;;;;;;;;;;15.90;66.10;;;;;;4183465;28;19935;-47
2023/12/08 08:51:44;;;;;;;;;;;16.00;66.30;;;;;;4161961;28;19935;-46
2023/12/08 08:54:25;;;;;;;;;;;16.10;66.00;;;;;;4177171;28;19935;-54
2023/12/08 08:57:06;;;;;;;;;;;16.10;65.40;;;;;;4175786;28;19935;-54
2023/12/08 08:59:47;;;;;;;;;;;16.20;64.90;;;;;;4168669;28;19958;-51
2023/12/08 09:02:27;;;;;;;;;;;16.20;64.80;;;;;;4175604;28;19936;-54
2023/12/08 09:05:09;;;;;;;;;;;16.10;65.30;;;;;;4183331;28;19977;-52
2023/12/08 09:07:51;;;;;;;;;;;16.00;65.40;;;;;;4174135;28;19931;-54
2023/12/08 09:10:32;;;;;;;;;;;15.90;66.10;;;;;;4171641;28;20016;-53
2023/12/08 09:13:12;;;;;;;;;;;15.80;66.70;;;;;;4169805;28;19940;-54
2023/12/08 09:15:53;;;;;;;;;;;15.70;67.40;;;;;;4183889;28;19935;-52
2023/12/08 09:18:34;;;;;;;;;;;15.70;68.10;;;;;;4184359;28;19935;-53
2023/12/08 09:21:16;;;;;;;;;;;15.70;68.30;;;;;;4178484;28;19997;-54
2023/12/08 09:23:59;;;;;;;;;;;15.70;68.40;;;;;;4176738;28;19935;-51
2023/12/08 09:26:40;;;;;;;;;;;15.70;68.90;;;;;;4167700;28;20086;-50
2023/12/08 09:29:21;;;;;;;;;;;15.70;68.60;;;;;;4174698;28;20017;-51
2023/12/08 09:32:02;;;;;;;;;;;15.70;68.70;;;;;;4177816;28;19935;-46
2023/12/08 09:34:42;;;;;;;;;;;15.70;68.30;;;;;;4178403;28;19939;-52
2023/12/08 09:37:24;;;;;;;;;;;15.70;68.50;;;;;;4181049;28;19935;-52
2023/12/08 09:40:10;;;;;;;;;;;15.70;69.00;;;;;;4168231;28;19935;-46
2023/12/08 09:42:53;;;;;;;;;;;15.70;69.10;;;;;;4169825;28;19983;-46
2023/12/08 09:45:34;;;;;;;;;;;15.80;69.00;;;;;;4174555;28;20275;-53
2023/12/08 09:48:17;;;;;;;;;;;15.80;68.90;;;;;;4184766;28;19977;-51
2023/12/08 09:50:58;;;;;;;;;;;15.90;68.60;;;;;;4175036;28;19949;-50
2023/12/08 09:53:39;;;;;;;;;;;16.00;68.10;;;;;;4169191;28;20429;-53
2023/12/08 09:56:23;;;;;;;;;;;16.00;67.80;;;;;;4170188;28;19978;-46
2023/12/08 09:59:05;;;;;;;;;;;16.00;67.80;;;;;;4176363;28;19932;-46
2023/12/08 10:01:45;;;;;;;;;;;16.00;67.90;;;;;;4174051;28;19939;-51
2023/12/08 10:04:26;;;;;;;;;;;16.00;67.70;;;;;;4192072;28;20390;-51
2023/12/08 10:07:09;;;;;;;;;;;16.00;67.40;;;;;;4168975;28;20812;-52
2023/12/08 10:09:59;;;;;;;;;;;16.00;67.80;;;;;;4180854;28;19939;-51
2023/12/08 10:12:41;;;;;;;;;;;15.90;68.10;;;;;;4175020;28;19947;-46
2023/12/08 10:15:23;;;;;;;;;;;15.90;68.20;;;;;;4168701;28;19931;-51
2023/12/08 10:18:03;;;;;;;;;;;15.90;68.40;;;;;;4168141;28;20063;-53
2023/12/08 10:20:44;;;;;;;;;;;15.90;68.50;;;;;;4179906;28;20425;-46
2023/12/08 10:23:25;;;;;;;;;;;15.90;68.00;;;;;;4179790;28;19939;-47
2023/12/08 10:26:06;;;;;;;;;;;16.00;68.10;;;;;;4179021;28;19986;-46
2023/12/08 10:28:48;;;;;;;;;;;16.00;68.00;;;;;;4176826;28;20098;-52
2023/12/08 10:31:29;;;;;;;;;;;15.90;68.10;;;;;;4170173;28;19940;-48
2023/12/08 10:34:11;;;;;;;;;;;15.90;67.80;;;;;;4174134;28;20066;-51
2023/12/08 10:36:53;;;;;;;;;;;15.90;67.60;;;;;;4167124;28;20280;-53
2023/12/08 10:39:34;;;;;;;;;;;15.90;68.90;;;;;;4175100;28;19935;-51
2023/12/08 10:42:15;;;;;;;;;;;15.90;68.40;;;;;;4176743;28;19978;-55
2023/12/08 10:44:58;;;;;;;;;;;15.90;69.10;;;;;;4167561;28;20403;-47
2023/12/08 10:47:40;;;;;;;;;;;16.00;68.70;;;;;;4183206;28;19939;-46
2023/12/08 10:50:22;;;;;;;;;;;16.00;68.80;;;;;;4188463;28;19935;-46
2023/12/08 10:53:03;;;;;;;;;;;16.10;69.00;;;;;;4168257;28;19936;-47
2023/12/08 10:55:45;;;;;;;;;;;16.10;69.30;;;;;;4175078;28;19935;-46
2023/12/08 10:58:28;;;;;;;;;;;16.10;69.20;;;;;;4171811;28;19935;-46
2023/12/08 11:01:13;;;;;;;;;;;16.20;68.90;;;;;;4190596;28;20009;-55
2023/12/08 11:03:57;;;;;;;;;;;16.20;69.70;;;;;;4178508;28;20019;-52
2023/12/08 11:06:42;;;;;;;;;;;16.20;69.60;;;;;;4155260;28;19936;-47
2023/12/08 11:09:23;;;;;;;;;;;16.20;69.20;;;;;;4161018;28;19936;-46
2023/12/08 11:12:05;;;;;;;;;;;16.20;69.70;;;;;;4155703;28;20291;-47
2023/12/08 11:14:49;;;;;;;;;;;16.20;69.30;;;;;;4157488;28;20295;-48
2023/12/08 11:17:36;;;;;;;;;;;16.20;69.20;;;;;;4174880;28;19932;-54
2023/12/08 11:20:17;;;;;;;;;;;16.20;69.10;;;;;;4167183;28;19981;-49
2023/12/08 11:22:58;;;;;;;;;;;16.10;69.20;;;;;;4161854;28;19967;-46
2023/12/08 11:25:43;;;;;;;;;;;16.10;69.20;;;;;;4151636;28;19936;-47
2023/12/08 11:28:25;;;;;;;;;;;16.00;69.50;;;;;;4155081;28;19932;-47
2023/12/08 11:31:10;;;;;;;;;;;15.90;70.60;;;;;;4167801;28;20296;-46
2023/12/08 11:33:54;;;;;;;;;;;15.80;70.20;;;;;;4157908;28;19999;-53
2023/12/08 11:36:42;;;;;;;;;;;15.90;70.30;;;;;;4175918;28;19991;-54
2023/12/08 11:39:39;;;;;;;;;;;15.90;70.30;;;;;;4185656;28;20505;-53
2023/12/08 11:42:21;;;;;;;;;;;15.90;70.30;;;;;;4177100;28;19997;-47
2023/12/08 11:45:07;;;;;;;;;;;15.80;70.40;;;;;;4172082;28;20478;-52
2023/12/08 11:47:47;;;;;;;;;;;15.80;70.70;;;;;;4160123;28;20384;-46
2023/12/08 11:50:32;;;;;;;;;;;15.90;71.20;;;;;;4169313;28;19971;-48
2023/12/08 11:53:13;;;;;;;;;;;15.90;70.40;;;;;;4170473;28;19936;-54
2023/12/08 11:55:55;;;;;;;;;;;15.90;70.10;;;;;;4176061;28;19936;-48
2023/12/08 11:58:36;;;;;;;;;;;15.90;70.30;;;;;;4153430;28;19937;-47
2023/12/08 12:01:19;;;;;;;;;;;15.90;70.30;;;;;;4176942;28;19935;-46
2023/12/08 12:04:01;;;;;;;;;;;15.80;70.40;;;;;;4176974;28;19931;-46
2023/12/08 12:06:44;;;;;;;;;;;15.80;70.30;;;;;;4190596;28;19975;-47
2023/12/08 12:09:25;;;;;;;;;;;15.70;70.30;;;;;;4178250;28;19935;-52
2023/12/08 12:12:10;;;;;;;;;;;15.70;70.60;;;;;;4169774;28;19931;-52
2023/12/08 12:14:51;;;;;;;;;;;15.70;70.90;;;;;;4175942;28;20390;-46
2023/12/08 12:17:32;;;;;;;;;;;15.80;71.60;;;;;;4180039;28;19974;-46
2023/12/08 12:20:13;;;;;;;;;;;15.80;70.50;;;;;;4171379;28;19932;-47
2023/12/08 12:22:55;;;;;;;;;;;15.70;70.80;;;;;;4175225;28;20444;-47
2023/12/08 12:25:37;;;;;;;;;;;15.70;71.20;;;;;;4179213;28;19936;-53
2023/12/08 12:28:18;;;;;;;;;;;15.60;71.90;;;;;;4159051;28;19936;-46
2023/12/08 12:30:58;;;;;;;;;;;15.60;72.60;;;;;;4162326;28;19936;-51
2023/12/08 12:33:39;;;;;;;;;;;15.50;72.30;;;;;;4160844;28;19936;-46
2023/12/08 12:36:21;;;;;;;;;;;15.60;72.40;;;;;;4179124;28;19936;-54
2023/12/08 12:39:03;;;;;;;;;;;15.60;72.50;;;;;;4173872;28;20394;-52
2023/12/08 12:41:45;;;;;;;;;;;15.60;72.50;;;;;;4170482;28;19962;-53
2023/12/08 12:44:38;;;;;;;;;;;15.60;72.70;;;;;;4176609;28;20395;-53
2023/12/08 12:47:21;;;;;;;;;;;15.60;73.10;;;;;;4174467;28;19978;-50
2023/12/08 12:50:04;;;;;;;;;;;15.50;73.30;;;;;;4176472;28;19982;-54
2023/12/08 12:52:45;;;;;;;;;;;15.50;73.80;;;;;;4180752;28;19939;-47
2023/12/08 12:55:28;;;;;;;;;;;15.40;73.80;;;;;;4172908;28;20394;-47
2023/12/08 12:58:17;;;;;;;;;;;15.30;74.00;;;;;;4172821;28;20057;-47
2023/12/08 13:00:58;;;;;;;;;;;15.30;74.20;;;;;;4178624;28;19936;-46
2023/12/08 13:03:45;;;;;;;;;;;15.20;75.30;;;;;;4176280;28;20074;-47
2023/12/08 13:06:26;;;;;;;;;;;15.20;74.40;;;;;;4176579;28;19935;-51
2023/12/08 13:09:09;;;;;;;;;;;15.20;74.60;;;;;;4178929;28;19931;-52
2023/12/08 13:11:51;;;;;;;;;;;15.20;74.80;;;;;;4174649;28;20025;-46
2023/12/08 13:14:32;;;;;;;;;;;15.20;74.90;;;;;;4179950;28;19936;-46
2023/12/08 13:17:13;;;;;;;;;;;15.40;74.90;;;;;;4174956;28;20058;-46
2023/12/08 13:19:54;;;;;;;;;;;15.50;74.30;;;;;;4173257;28;20037;-50
2023/12/08 13:22:35;;;;;;;;;;;15.60;73.90;;;;;;4175976;28;19935;-51
2023/12/08 13:25:15;;;;;;;;;;;15.60;73.50;;;;;;4174479;28;19935;-51
2023/12/08 13:27:58;;;;;;;;;;;15.60;73.30;;;;;;4170745;28;19993;-51
2023/12/08 13:30:39;;;;;;;;;;;15.70;73.30;;;;;;4176597;28;19981;-51
2023/12/08 13:33:21;;;;;;;;;;;15.70;73.30;;;;;;4178155;28;20428;-51
2023/12/08 13:36:02;;;;;;;;;;;15.70;73.40;;;;;;4176495;28;19997;-51
2023/12/08 13:38:43;;;;;;;;;;;15.70;73.40;;;;;;4181762;28;19939;-51
2023/12/08 13:41:25;;;;;;;;;;;15.70;73.30;;;;;;4182066;28;19948;-52
2023/12/08 13:44:08;;;;;;;;;;;15.70;73.20;;;;;;4177995;28;19951;-50
2023/12/08 13:46:49;;;;;;;;;;;15.70;73.20;;;;;;4184282;28;19938;-54
2023/12/08 13:49:30;;;;;;;;;;;15.70;73.20;;;;;;4170586;28;19978;-53
2023/12/08 13:52:11;;;;;;;;;;;15.60;73.30;;;;;;4172662;28;19951;-55
2023/12/08 13:54:52;;;;;;;;;;;15.60;73.60;;;;;;4174795;28;20019;-52
2023/12/08 13:57:33;;;;;;;;;;;15.60;74.80;;;;;;4173890;28;20079;-50
2023/12/08 14:00:16;;;;;;;;;;;15.60;73.80;;;;;;4177758;28;20292;-51
2023/12/08 14:02:57;;;;;;;;;;;15.70;73.70;;;;;;4175172;28;19935;-47
2023/12/08 14:05:40;;;;;;;;;;;15.70;74.20;;;;;;4120197;28;19980;-46
2023/12/08 14:08:24;;;;;;;;;;;15.80;73.30;;;;;;4139443;28;19937;-46
2023/12/08 14:11:06;;;;;;;;;;;15.80;73.30;;;;;;4173589;28;20893;-46
2023/12/08 14:13:46;;;;;;;;;;;15.90;73.20;;;;;;4180858;28;20670;-45
2023/12/08 14:16:29;;;;;;;;;;;15.90;72.90;;;;;;4174346;28;20402;-47
2023/12/08 14:19:09;;;;;;;;;;;15.90;72.80;;;;;;4174116;28;19944;-45
2023/12/08 14:21:51;;;;;;;;;;;15.80;72.80;;;;;;4178744;28;19931;-46
2023/12/08 14:24:31;;;;;;;;;;;15.80;72.80;;;;;;4173265;28;19935;-53
2023/12/08 14:27:12;;;;;;;;;;;15.80;73.80;;;;;;4157156;28;19936;-54
2023/12/08 14:29:53;;;;;;;;;;;15.70;73.20;;;;;;4162054;28;19932;-54
2023/12/08 14:32:35;;;;;;;;;;;15.70;73.40;;;;;;4161241;28;19935;-53
2023/12/08 14:35:16;;;;;;;;;;;15.80;73.40;;;;;;4159143;28;19936;-54
2023/12/08 14:38:02;;;;;;;;;;;15.80;73.10;;;;;;4162490;28;19932;-55
2023/12/08 14:40:43;;;;;;;;;;;15.80;73.20;;;;;;4183657;28;19932;-53
2023/12/08 14:43:24;;;;;;;;;;;15.90;73.10;;;;;;4176793;28;19936;-54
2023/12/08 14:46:04;;;;;;;;;;;15.90;73.00;;;;;;4182464;28;20317;-54
2023/12/08 14:48:46;;;;;;;;;;;15.90;73.00;;;;;;4174329;28;19936;-50
2023/12/08 14:51:27;;;;;;;;;;;15.90;73.10;;;;;;4186582;28;19931;-45
2023/12/08 14:54:08;;;;;;;;;;;15.80;73.00;;;;;;4170674;28;19935;-46
2023/12/08 14:56:49;;;;;;;;;;;15.90;73.00;;;;;;4170409;28;19956;-47
2023/12/08 14:59:30;;;;;;;;;;;15.90;74.00;;;;;;4187189;28;19932;-47
2023/12/08 15:02:10;;;;;;;;;;;15.90;73.10;;;;;;4187099;28;19936;-47
2023/12/08 15:04:52;;;;;;;;;;;15.90;73.90;;;;;;4189535;28;19931;-51